Time;durP1;ratioP1;P1;durP2;ratioP2;P2;SDS_P1;SDS_P2;PMS_P1;PMS_P2;Temp;Humidity;BMP_temperature;BMP_pressure;BME280_temperature;BME280_humidity;BME280_pressure;Samples;Min_cycle;Max_cycle;Signal;HPM_P1;HPM_P2
2022/05/13 00:00:05;;;;;;;2.75;1.80;;;19.00;99.30;;;;;;165985;29;1738;-74
2022/05/13 00:00:14;;;;;;;3.30;2.03;;;19.00;99.20;;;;;;166041;29;1255;-74
2022/05/13 00:00:20;;;;;;;3.61;2.04;;;19.00;99.20;;;;;;164601;30;1138;-75
2022/05/13 00:00:26;;;;;;;3.58;2.00;;;19.00;99.40;;;;;;165328;29;1286;-75
2022/05/13 00:00:32;;;;;;;3.60;2.00;;;19.00;99.50;;;;;;165896;29;1839;-75
2022/05/13 00:00:39;;;;;;;4.05;1.92;;;19.00;99.50;;;;;;166012;29;905;-75
2022/05/13 00:00:45;;;;;;;3.77;1.87;;;19.00;99.40;;;;;;166589;29;959;-75
2022/05/13 00:00:50;;;;;;;3.60;1.90;;;19.00;99.40;;;;;;166427;29;1566;-75
2022/05/13 00:00:56;;;;;;;3.73;1.83;;;19.00;99.40;;;;;;165135;29;1685;-76
2022/05/13 00:01:07;;;;;;;3.63;1.92;;;19.00;99.30;;;;;;164684;30;1259;-75
2022/05/13 00:01:13;;;;;;;4.27;1.97;;;19.00;99.30;;;;;;164747;30;876;-75
2022/05/13 00:01:20;;;;;;;4.18;1.92;;;19.00;99.40;;;;;;164636;30;1439;-75
2022/05/13 00:01:25;;;;;;;4.32;2.00;;;19.00;99.50;;;;;;164711;30;1586;-75
2022/05/13 00:01:31;;;;;;;4.27;1.90;;;19.00;99.40;;;;;;164818;30;965;-75
2022/05/13 00:01:37;;;;;;;3.40;1.90;;;19.00;99.50;;;;;;165951;29;1221;-75
2022/05/13 00:01:43;;;;;;;3.60;1.92;;;19.00;99.50;;;;;;166001;29;1505;-74
2022/05/13 00:01:48;;;;;;;4.13;2.00;;;19.00;99.60;;;;;;166466;29;1319;-75
2022/05/13 00:01:54;;;;;;;4.00;1.90;;;19.00;99.60;;;;;;166720;29;868;-75
2022/05/13 00:02:00;;;;;;;5.13;2.05;;;19.00;99.60;;;;;;166632;29;987;-75
2022/05/13 00:02:08;;;;;;;5.88;2.15;;;18.90;99.70;;;;;;167178;29;1224;-75
2022/05/13 00:02:14;;;;;;;5.53;2.20;;;18.90;99.70;;;;;;167272;29;1135;-75
2022/05/13 00:02:20;;;;;;;4.95;2.20;;;19.00;99.90;;;;;;166526;29;1342;-75
2022/05/13 00:02:25;;;;;;;5.53;2.17;;;18.90;99.90;;;;;;166559;29;1370;-75
2022/05/13 00:02:31;;;;;;;5.22;2.17;;;19.00;99.90;;;;;;166718;29;783;-74
2022/05/13 00:02:37;;;;;;;4.55;1.92;;;18.90;99.90;;;;;;166023;29;1016;-74
2022/05/13 00:02:43;;;;;;;4.80;2.00;;;18.90;99.90;;;;;;166042;29;1147;-75
2022/05/13 00:02:49;;;;;;;4.78;1.95;;;18.90;99.90;;;;;;165983;29;901;-75
2022/05/13 00:02:54;;;;;;;4.47;2.00;;;18.90;99.90;;;;;;166558;29;1195;-75
2022/05/13 00:03:00;;;;;;;4.00;2.00;;;18.90;99.90;;;;;;167950;29;896;-75
2022/05/13 00:03:06;;;;;;;4.75;2.15;;;18.90;99.90;;;;;;166535;29;2554;-75
2022/05/13 00:03:12;;;;;;;4.57;2.10;;;18.80;99.90;;;;;;165724;29;1676;-75
2022/05/13 00:03:18;;;;;;;4.45;2.08;;;18.80;99.90;;;;;;164715;30;1181;-75
2022/05/13 00:03:24;;;;;;;4.15;1.95;;;18.80;99.90;;;;;;164797;30;909;-75
2022/05/13 00:03:29;;;;;;;4.27;2.00;;;18.80;99.90;;;;;;165314;29;1395;-74
2022/05/13 00:03:37;;;;;;;5.60;1.88;;;18.80;99.90;;;;;;165918;29;2223;-75
2022/05/13 00:03:43;;;;;;;6.07;1.97;;;18.80;99.90;;;;;;165398;29;1059;-75
2022/05/13 00:03:49;;;;;;;6.70;2.17;;;18.80;99.90;;;;;;165953;29;1356;-75
2022/05/13 00:03:55;;;;;;;6.67;2.13;;;18.80;99.90;;;;;;166724;29;1813;-75
2022/05/13 00:04:01;;;;;;;6.18;2.05;;;18.80;99.90;;;;;;167193;29;1185;-75
2022/05/13 00:04:06;;;;;;;3.55;2.00;;;18.80;99.90;;;;;;167211;29;1379;-75
2022/05/13 00:04:12;;;;;;;3.75;2.00;;;18.70;99.90;;;;;;166585;29;1166;-74
2022/05/13 00:04:18;;;;;;;3.40;2.00;;;18.80;99.90;;;;;;167183;29;837;-76
2022/05/13 00:04:24;;;;;;;3.80;2.10;;;18.80;99.90;;;;;;166581;29;1316;-75
2022/05/13 00:04:30;;;;;;;4.10;2.05;;;18.80;99.90;;;;;;167291;29;1351;-75
2022/05/13 00:04:37;;;;;;;4.33;2.03;;;18.80;99.90;;;;;;166571;29;1261;-75
2022/05/13 00:04:42;;;;;;;4.05;1.95;;;18.70;99.90;;;;;;165462;29;1012;-74
2022/05/13 00:04:48;;;;;;;4.20;2.00;;;18.70;99.90;;;;;;166544;29;1181;-74
2022/05/13 00:04:54;;;;;;;4.15;2.00;;;18.70;99.90;;;;;;165930;29;1462;-75
2022/05/13 00:05:02;;;;;;;3.88;2.20;;;18.70;99.90;;;;;;165394;29;993;-75
2022/05/13 00:05:09;;;;;;;3.75;2.23;;;18.80;99.90;;;;;;166477;29;1378;-75
2022/05/13 00:05:15;;;;;;;3.33;2.07;;;18.80;99.90;;;;;;166082;29;881;-75
2022/05/13 00:05:22;;;;;;;3.25;2.00;;;18.70;99.90;;;;;;166035;29;830;-75
2022/05/13 00:05:28;;;;;;;3.06;1.90;;;18.80;99.90;;;;;;165939;29;1465;-74
2022/05/13 00:05:34;;;;;;;2.78;1.70;;;18.70;99.90;;;;;;166213;29;1777;-74
2022/05/13 00:05:39;;;;;;;2.75;1.70;;;18.70;99.90;;;;;;166732;29;967;-75
2022/05/13 00:05:45;;;;;;;2.78;1.77;;;18.70;99.90;;;;;;165958;29;1649;-75
2022/05/13 00:05:51;;;;;;;2.93;1.80;;;18.70;99.90;;;;;;165448;29;925;-74
2022/05/13 00:05:57;;;;;;;3.08;1.90;;;18.70;99.90;;;;;;165309;29;1336;-75
2022/05/13 00:06:03;;;;;;;3.47;1.85;;;18.70;99.90;;;;;;165398;29;838;-75
2022/05/13 00:06:09;;;;;;;3.65;1.80;;;18.70;99.90;;;;;;166670;29;1169;-75
2022/05/13 00:06:15;;;;;;;3.87;1.97;;;18.70;99.90;;;;;;167179;29;1240;-75
2022/05/13 00:06:21;;;;;;;3.85;1.98;;;18.70;99.90;;;;;;165972;29;1204;-75
2022/05/13 00:06:26;;;;;;;3.80;1.83;;;18.70;99.90;;;;;;165955;29;1514;-74
2022/05/13 00:06:32;;;;;;;3.60;2.00;;;18.60;99.90;;;;;;165739;29;1521;-75
2022/05/13 00:06:38;;;;;;;3.53;2.00;;;18.60;99.90;;;;;;166027;29;1212;-74
2022/05/13 00:06:44;;;;;;;3.35;1.90;;;18.60;99.90;;;;;;164647;30;1233;-74
2022/05/13 00:06:50;;;;;;;3.40;2.00;;;18.60;99.90;;;;;;164660;30;1230;-74
2022/05/13 00:06:55;;;;;;;3.47;2.05;;;18.60;99.90;;;;;;165354;29;1225;-75
2022/05/13 00:07:02;;;;;;;4.43;2.10;;;18.60;99.90;;;;;;166601;29;1306;-75
2022/05/13 00:07:08;;;;;;;5.23;2.10;;;18.60;99.90;;;;;;166644;29;1147;-75
2022/05/13 00:07:14;;;;;;;5.78;2.33;;;18.50;99.90;;;;;;167176;29;1387;-75
2022/05/13 00:07:20;;;;;;;5.63;2.20;;;18.60;99.90;;;;;;166655;29;1232;-74
2022/05/13 00:07:25;;;;;;;5.73;2.27;;;18.50;99.90;;;;;;166629;29;1573;-74
2022/05/13 00:07:31;;;;;;;4.70;2.15;;;18.60;99.90;;;;;;166035;29;1251;-74
2022/05/13 00:07:37;;;;;;;4.17;2.30;;;18.60;99.90;;;;;;165497;29;909;-74
2022/05/13 00:07:43;;;;;;;3.85;2.08;;;18.50;99.90;;;;;;165451;29;1000;-74
2022/05/13 00:07:49;;;;;;;4.18;2.15;;;18.50;99.90;;;;;;166641;29;871;-75
2022/05/13 00:07:54;;;;;;;4.00;2.13;;;18.50;99.90;;;;;;165405;29;1004;-75
2022/05/13 00:08:00;;;;;;;3.92;2.08;;;18.50;99.90;;;;;;165922;29;1888;-75
2022/05/13 00:08:06;;;;;;;3.40;2.00;;;18.50;99.90;;;;;;165353;29;1398;-74
2022/05/13 00:08:12;;;;;;;3.60;2.00;;;18.50;99.90;;;;;;165338;29;1586;-75
2022/05/13 00:08:18;;;;;;;3.35;1.90;;;18.50;99.90;;;;;;164764;30;818;-75
2022/05/13 00:08:24;;;;;;;3.25;1.90;;;18.50;99.90;;;;;;163991;30;1106;-75
2022/05/13 00:08:31;;;;;;;3.90;1.93;;;18.50;99.90;;;;;;165396;29;860;-75
2022/05/13 00:08:37;;;;;;;3.80;1.90;;;18.50;99.90;;;;;;165872;29;1673;-75
2022/05/13 00:08:42;;;;;;;3.33;1.90;;;18.40;99.90;;;;;;166060;29;865;-74
2022/05/13 00:08:48;;;;;;;3.40;1.98;;;18.40;99.90;;;;;;165346;29;1341;-75
2022/05/13 00:08:54;;;;;;;3.35;1.95;;;18.40;99.90;;;;;;164832;30;907;-75
2022/05/13 00:09:00;;;;;;;3.07;1.90;;;18.40;99.90;;;;;;165293;29;1204;-75
2022/05/13 00:09:05;;;;;;;3.35;1.98;;;18.40;99.90;;;;;;165350;29;907;-74
2022/05/13 00:09:11;;;;;;;3.55;2.00;;;18.40;99.90;;;;;;165478;29;881;-75
2022/05/13 00:09:17;;;;;;;3.50;1.90;;;18.40;99.90;;;;;;164074;30;1336;-73
2022/05/13 00:09:56;;;;;;;4.13;2.03;;;18.40;99.90;;;;;;164198;30;834;-72
2022/05/13 00:09:57;;;;;;;5.22;2.16;;;18.40;99.90;;;;;;165359;29;1238;-72
2022/05/13 00:10:07;;;;;;;5.71;2.07;;;18.40;99.90;;;;;;165380;29;1224;-74
2022/05/13 00:10:13;;;;;;;5.26;2.20;;;18.40;99.90;;;;;;165395;29;1222;-74
2022/05/13 00:10:19;;;;;;;4.30;2.22;;;18.40;99.90;;;;;;165997;29;920;-74
2022/05/13 00:10:25;;;;;;;4.60;2.30;;;18.40;99.90;;;;;;166044;29;881;-74
2022/05/13 00:10:31;;;;;;;4.38;2.10;;;18.40;99.90;;;;;;165902;29;1632;-74
2022/05/13 00:10:36;;;;;;;4.63;2.13;;;18.30;99.90;;;;;;165597;29;1708;-74
2022/05/13 00:10:43;;;;;;;4.63;2.20;;;18.40;99.90;;;;;;165321;29;1372;-75
2022/05/13 00:10:49;;;;;;;4.63;2.20;;;18.30;99.90;;;;;;165353;29;957;-74
2022/05/13 00:10:55;;;;;;;4.30;2.10;;;18.40;99.90;;;;;;165431;29;917;-75
2022/05/13 00:11:04;;;;;;;3.92;2.17;;;18.40;99.90;;;;;;166070;29;1059;-74
2022/05/13 00:11:10;;;;;;;3.73;2.10;;;18.40;99.90;;;;;;166558;29;1050;-75
2022/05/13 00:11:16;;;;;;;4.18;2.18;;;18.40;99.90;;;;;;166476;29;1486;-74
2022/05/13 00:11:22;;;;;;;4.27;2.30;;;18.30;99.90;;;;;;166048;29;1572;-75
2022/05/13 00:11:28;;;;;;;4.28;2.33;;;18.30;99.90;;;;;;164105;29;1332;-75
2022/05/13 00:11:34;;;;;;;5.57;2.40;;;18.30;99.90;;;;;;164718;30;833;-75
2022/05/13 00:11:40;;;;;;;5.18;2.40;;;18.30;99.90;;;;;;164763;30;930;-75
2022/05/13 00:11:45;;;;;;;5.35;2.45;;;18.30;99.90;;;;;;165918;29;1464;-75
2022/05/13 00:11:51;;;;;;;5.13;2.33;;;18.30;99.90;;;;;;166043;29;762;-75
2022/05/13 00:11:57;;;;;;;5.00;2.20;;;18.30;99.90;;;;;;166066;29;826;-75
2022/05/13 00:12:03;;;;;;;4.13;2.17;;;18.30;99.90;;;;;;166654;29;1279;-75
2022/05/13 00:12:10;;;;;;;3.87;2.17;;;18.30;99.90;;;;;;167217;29;1413;-74
2022/05/13 00:12:16;;;;;;;3.07;2.00;;;18.30;99.90;;;;;;167255;29;1125;-74
2022/05/13 00:12:28;;;;;;;3.40;2.00;;;18.40;99.90;;;;;;166649;29;1314;-75
2022/05/13 00:12:40;;;;;;;3.39;2.00;;;18.40;99.90;;;;;;166013;29;1445;-75
2022/05/13 00:12:46;;;;;;;3.17;1.94;;;18.40;99.90;;;;;;165429;29;1420;-75
2022/05/13 00:12:52;;;;;;;3.33;1.83;;;18.40;99.90;;;;;;165368;29;985;-75
2022/05/13 00:12:58;;;;;;;3.33;1.83;;;18.40;99.90;;;;;;165969;29;1409;-75
2022/05/13 00:13:04;;;;;;;3.33;1.77;;;18.40;99.90;;;;;;166384;29;1907;-75
2022/05/13 00:13:11;;;;;;;3.60;1.90;;;18.30;99.90;;;;;;166075;29;1750;-75
2022/05/13 00:13:16;;;;;;;3.78;2.00;;;18.30;99.90;;;;;;167304;29;1118;-75
2022/05/13 00:13:22;;;;;;;3.58;2.08;;;18.30;99.90;;;;;;167278;29;1027;-75
2022/05/13 00:13:29;;;;;;;3.92;2.20;;;18.30;99.90;;;;;;166564;29;1253;-75
2022/05/13 00:13:35;;;;;;;4.30;2.20;;;18.30;99.90;;;;;;166625;29;1915;-75
2022/05/13 00:13:41;;;;;;;4.20;2.13;;;18.30;99.90;;;;;;166441;29;1406;-75
2022/05/13 00:13:47;;;;;;;5.20;2.17;;;18.30;99.90;;;;;;166616;29;1019;-74
2022/05/13 00:13:53;;;;;;;6.07;2.30;;;18.20;99.90;;;;;;166026;29;976;-75
2022/05/13 00:13:59;;;;;;;5.82;2.33;;;18.30;99.90;;;;;;166024;29;814;-74
2022/05/13 00:14:08;;;;;;;5.25;2.25;;;18.30;99.90;;;;;;165925;29;1140;-74
2022/05/13 00:14:14;;;;;;;5.20;2.31;;;18.30;99.90;;;;;;165848;29;1059;-75
2022/05/13 00:14:20;;;;;;;3.70;2.20;;;18.30;99.90;;;;;;165923;29;893;-75
2022/05/13 00:14:26;;;;;;;4.03;2.17;;;18.30;99.90;;;;;;167256;29;1057;-75
2022/05/13 00:14:31;;;;;;;4.40;2.10;;;18.20;99.90;;;;;;166727;29;1022;-75
2022/05/13 00:14:37;;;;;;;4.63;2.20;;;18.20;99.90;;;;;;166650;29;846;-75
2022/05/13 00:14:45;;;;;;;4.97;2.20;;;18.30;99.90;;;;;;166736;29;939;-75
2022/05/13 00:14:52;;;;;;;4.77;2.13;;;18.20;99.90;;;;;;167235;29;948;-74
2022/05/13 00:15:00;;;;;;;4.53;2.30;;;18.30;99.90;;;;;;166013;29;922;-75
2022/05/13 00:15:14;;;;;;;4.44;2.29;;;18.30;99.90;;;;;;166006;29;1082;-75
2022/05/13 00:15:24;;;;;;;4.68;2.26;;;18.20;99.90;;;;;;166480;29;1523;-75
2022/05/13 00:15:30;;;;;;;5.25;2.15;;;18.20;99.90;;;;;;165984;29;1147;-74
2022/05/13 00:15:36;;;;;;;5.27;2.30;;;18.20;99.90;;;;;;166028;29;838;-75
2022/05/13 00:15:42;;;;;;;5.28;2.30;;;18.20;99.90;;;;;;165965;29;1437;-75
2022/05/13 00:15:49;;;;;;;4.30;2.37;;;18.20;99.90;;;;;;166042;29;949;-72
2022/05/13 00:15:55;;;;;;;4.10;2.53;;;18.20;99.90;;;;;;166085;29;972;-72
2022/05/13 00:16:03;;;;;;;3.97;2.50;;;18.10;99.90;;;;;;164700;29;1431;-72
2022/05/13 00:16:09;;;;;;;3.77;2.40;;;18.10;99.90;;;;;;164849;29;1752;-72
2022/05/13 00:16:15;;;;;;;4.30;2.47;;;18.10;99.90;;;;;;165091;29;1754;-73
2022/05/13 00:16:22;;;;;;;4.07;2.30;;;18.10;99.90;;;;;;165281;29;1415;-73
2022/05/13 00:16:27;;;;;;;3.85;2.20;;;18.10;99.90;;;;;;165949;29;1418;-73
2022/05/13 00:16:36;;;;;;;3.97;2.33;;;18.20;99.90;;;;;;165783;29;2418;-72
2022/05/13 00:16:42;;;;;;;3.75;2.10;;;18.10;99.90;;;;;;165804;29;1459;-72
2022/05/13 00:16:48;;;;;;;3.80;2.10;;;18.20;99.90;;;;;;165818;29;1489;-71
2022/05/13 00:16:54;;;;;;;3.65;2.03;;;18.20;99.90;;;;;;166000;29;925;-72
2022/05/13 00:17:00;;;;;;;3.65;2.00;;;18.20;99.90;;;;;;165398;29;914;-71
2022/05/13 00:17:06;;;;;;;3.47;1.87;;;18.20;99.90;;;;;;166083;29;901;-72
2022/05/13 00:17:14;;;;;;;3.33;1.90;;;18.20;99.90;;;;;;166053;29;942;-72
2022/05/13 00:17:21;;;;;;;3.12;1.90;;;18.20;99.90;;;;;;166054;29;943;-72
2022/05/13 00:17:27;;;;;;;3.60;2.14;;;18.20;99.90;;;;;;164835;30;1209;-72
2022/05/13 00:17:33;;;;;;;3.72;2.20;;;18.30;99.90;;;;;;165412;29;980;-72
2022/05/13 00:17:39;;;;;;;4.50;2.30;;;18.20;99.90;;;;;;165989;29;900;-73
2022/05/13 00:17:47;;;;;;;5.20;2.37;;;18.30;99.90;;;;;;165144;29;2018;-73
2022/05/13 00:17:54;;;;;;;5.03;2.38;;;18.20;99.90;;;;;;166053;29;996;-72
2022/05/13 00:18:00;;;;;;;4.76;2.20;;;18.20;99.90;;;;;;166035;29;952;-73
2022/05/13 00:18:06;;;;;;;4.80;2.20;;;18.20;99.90;;;;;;166011;29;850;-72
2022/05/13 00:18:11;;;;;;;4.50;2.22;;;18.20;99.90;;;;;;166669;29;1367;-73
2022/05/13 00:18:17;;;;;;;5.00;2.20;;;18.20;99.90;;;;;;165589;29;1591;-72
2022/05/13 00:18:23;;;;;;;5.57;2.33;;;18.20;99.90;;;;;;166420;29;1538;-72
2022/05/13 00:18:29;;;;;;;6.10;2.67;;;18.20;99.90;;;;;;165957;29;2277;-72
2022/05/13 00:18:35;;;;;;;5.97;2.63;;;18.20;99.90;;;;;;166620;29;1006;-72
2022/05/13 00:18:41;;;;;;;5.32;2.53;;;18.20;99.90;;;;;;165984;29;941;-72
2022/05/13 00:18:47;;;;;;;4.45;2.42;;;18.20;99.90;;;;;;165458;29;927;-72
2022/05/13 00:18:53;;;;;;;3.90;2.27;;;18.20;99.90;;;;;;165398;29;857;-72
2022/05/13 00:18:59;;;;;;;3.22;2.00;;;18.20;99.90;;;;;;164761;30;1036;-72
2022/05/13 00:19:08;;;;;;;3.57;2.10;;;18.20;99.90;;;;;;166080;29;885;-72
2022/05/13 00:19:14;;;;;;;3.69;2.10;;;18.20;99.90;;;;;;165136;29;1563;-72
2022/05/13 00:19:19;;;;;;;3.90;2.10;;;18.30;99.90;;;;;;164619;30;1563;-72
2022/05/13 00:19:25;;;;;;;4.97;2.10;;;18.30;99.90;;;;;;164707;30;1413;-72
2022/05/13 00:19:31;;;;;;;5.70;2.13;;;18.30;99.90;;;;;;165933;29;1368;-72
2022/05/13 00:19:38;;;;;;;5.47;2.10;;;18.30;99.90;;;;;;166665;29;825;-72
2022/05/13 00:19:44;;;;;;;5.80;2.14;;;18.30;99.90;;;;;;165972;29;1333;-72
2022/05/13 00:19:51;;;;;;;6.30;2.20;;;18.30;99.90;;;;;;166030;29;1028;-72
2022/05/13 00:19:57;;;;;;;5.18;2.28;;;18.30;99.90;;;;;;165840;29;2084;-72
2022/05/13 00:20:05;;;;;;;4.85;2.30;;;18.30;99.90;;;;;;165169;29;1943;-72
2022/05/13 00:20:12;;;;;;;5.05;2.30;;;18.30;99.90;;;;;;166349;29;1325;-72
2022/05/13 00:20:18;;;;;;;4.86;2.22;;;18.30;99.90;;;;;;165300;29;870;-72
2022/05/13 00:20:24;;;;;;;4.88;2.20;;;18.30;99.90;;;;;;166052;29;884;-72
2022/05/13 00:20:30;;;;;;;4.98;2.14;;;18.40;99.90;;;;;;165907;29;1489;-72
2022/05/13 00:20:37;;;;;;;5.18;2.13;;;18.40;99.90;;;;;;164818;30;834;-72
2022/05/13 00:20:43;;;;;;;4.87;2.23;;;18.40;99.90;;;;;;165953;29;1197;-72
2022/05/13 00:20:49;;;;;;;4.62;2.30;;;18.40;99.90;;;;;;165308;29;1566;-72
2022/05/13 00:20:55;;;;;;;4.82;2.35;;;18.40;99.90;;;;;;165929;29;1076;-72
2022/05/13 00:21:01;;;;;;;4.77;2.30;;;18.40;99.90;;;;;;166033;29;1020;-72
2022/05/13 00:21:07;;;;;;;4.43;2.40;;;18.50;99.90;;;;;;166584;29;1417;-72
2022/05/13 00:21:13;;;;;;;4.60;2.40;;;18.50;99.90;;;;;;164725;29;1197;-72
2022/05/13 00:21:19;;;;;;;4.50;2.30;;;18.50;99.90;;;;;;164780;30;937;-72
2022/05/13 00:21:25;;;;;;;4.32;2.20;;;18.50;99.90;;;;;;166102;29;936;-73
2022/05/13 00:21:31;;;;;;;4.43;2.30;;;18.50;99.90;;;;;;166543;29;1586;-72
2022/05/13 00:21:37;;;;;;;4.18;2.28;;;18.50;99.90;;;;;;165928;29;1685;-72
2022/05/13 00:21:42;;;;;;;4.23;2.30;;;18.50;99.90;;;;;;165944;29;1418;-71
2022/05/13 00:21:48;;;;;;;4.50;2.42;;;18.50;99.90;;;;;;165298;29;1197;-72
2022/05/13 00:21:54;;;;;;;5.90;2.50;;;18.60;99.90;;;;;;166575;29;1319;-72
2022/05/13 00:22:00;;;;;;;6.85;2.50;;;18.60;99.90;;;;;;166669;29;921;-72
2022/05/13 00:22:06;;;;;;;6.80;2.50;;;18.60;99.90;;;;;;166636;29;1491;-73
2022/05/13 00:22:12;;;;;;;6.60;2.35;;;18.60;99.90;;;;;;166025;29;988;-72
2022/05/13 00:22:19;;;;;;;6.07;2.20;;;18.60;99.90;;;;;;166606;29;969;-72
2022/05/13 00:22:25;;;;;;;4.64;2.18;;;18.60;99.90;;;;;;165385;29;940;-73
2022/05/13 00:22:30;;;;;;;3.70;2.15;;;18.60;99.90;;;;;;166371;29;1738;-72
2022/05/13 00:22:48;;;;;;;3.78;2.15;;;18.60;99.90;;;;;;167287;29;860;-73
2022/05/13 00:22:56;;;;;;;3.84;2.14;;;18.70;99.90;;;;;;166522;29;1357;-72
2022/05/13 00:23:03;;;;;;;3.87;2.05;;;18.70;99.90;;;;;;166019;29;971;-72
2022/05/13 00:23:09;;;;;;;3.87;2.00;;;18.70;99.90;;;;;;163935;29;2793;-72
2022/05/13 00:23:15;;;;;;;3.65;2.03;;;18.70;99.90;;;;;;164652;30;1201;-72
2022/05/13 00:23:21;;;;;;;3.67;2.13;;;18.70;99.90;;;;;;164782;30;1241;-72
2022/05/13 00:23:27;;;;;;;3.57;2.10;;;18.70;99.90;;;;;;164826;30;934;-72
2022/05/13 00:23:33;;;;;;;3.50;2.13;;;18.70;99.90;;;;;;164794;30;913;-73
2022/05/13 00:23:38;;;;;;;3.73;2.27;;;18.70;99.90;;;;;;165871;29;1762;-73
2022/05/13 00:23:44;;;;;;;4.03;2.30;;;18.70;99.90;;;;;;167237;29;1504;-72
2022/05/13 00:23:50;;;;;;;3.75;2.20;;;18.70;99.90;;;;;;166527;29;1312;-72
2022/05/13 00:23:56;;;;;;;3.70;2.20;;;18.70;99.90;;;;;;166586;29;1282;-72
2022/05/13 00:24:02;;;;;;;4.32;2.28;;;18.70;99.90;;;;;;166662;29;839;-73
2022/05/13 00:24:08;;;;;;;4.20;2.20;;;18.70;99.90;;;;;;166032;29;854;-73
2022/05/13 00:24:13;;;;;;;4.25;2.25;;;18.70;99.90;;;;;;165985;29;1252;-72
2022/05/13 00:24:19;;;;;;;4.53;2.30;;;18.70;99.90;;;;;;167190;29;984;-72
2022/05/13 00:24:25;;;;;;;4.32;2.20;;;18.70;99.90;;;;;;167194;29;916;-72
2022/05/13 00:24:31;;;;;;;3.70;2.17;;;18.70;99.90;;;;;;166679;29;951;-72
2022/05/13 00:24:37;;;;;;;3.60;2.08;;;18.70;99.90;;;;;;167206;29;881;-72
2022/05/13 00:24:43;;;;;;;3.53;2.05;;;18.70;99.90;;;;;;167296;29;920;-72
2022/05/13 00:24:52;;;;;;;3.22;2.00;;;18.70;99.90;;;;;;166486;29;1515;-73
2022/05/13 00:24:58;;;;;;;4.37;2.22;;;18.60;99.90;;;;;;166637;29;1481;-72
2022/05/13 00:25:04;;;;;;;5.93;2.30;;;18.70;99.90;;;;;;165444;29;975;-72
2022/05/13 00:25:11;;;;;;;5.60;2.30;;;18.60;99.90;;;;;;164962;29;1888;-72
2022/05/13 00:25:21;;;;;;;5.67;2.30;;;18.60;99.90;;;;;;165342;29;1381;-72
2022/05/13 00:25:31;;;;;;;5.51;2.33;;;18.60;99.90;;;;;;166518;29;1150;-72
2022/05/13 00:25:38;;;;;;;3.44;2.12;;;18.60;99.90;;;;;;167095;29;1389;-72
2022/05/13 00:25:44;;;;;;;3.37;2.07;;;18.60;99.90;;;;;;166701;29;933;-72
2022/05/13 00:25:50;;;;;;;3.63;2.17;;;18.60;99.90;;;;;;166690;29;956;-72
2022/05/13 00:25:55;;;;;;;3.83;2.17;;;18.60;99.90;;;;;;166633;29;976;-72
2022/05/13 00:26:01;;;;;;;3.95;2.25;;;18.60;99.90;;;;;;165989;29;1457;-72
2022/05/13 00:26:07;;;;;;;4.00;2.25;;;18.60;99.90;;;;;;167207;29;1328;-72
2022/05/13 00:26:13;;;;;;;4.50;2.30;;;18.60;99.90;;;;;;166666;29;861;-72
2022/05/13 00:26:19;;;;;;;4.60;2.35;;;18.60;99.90;;;;;;166609;29;1455;-72
2022/05/13 00:26:25;;;;;;;5.10;2.40;;;18.60;99.90;;;;;;167391;29;1111;-72
2022/05/13 00:26:30;;;;;;;5.37;2.50;;;18.60;99.90;;;;;;165763;29;1705;-72
2022/05/13 00:26:36;;;;;;;5.60;2.58;;;18.60;99.90;;;;;;165826;29;1645;-72
2022/05/13 00:26:42;;;;;;;5.47;2.60;;;18.60;99.90;;;;;;166035;29;838;-72
2022/05/13 00:26:47;;;;;;;6.90;2.58;;;18.60;99.90;;;;;;165970;29;893;-72
2022/05/13 00:26:53;;;;;;;6.80;2.50;;;18.60;99.90;;;;;;166014;29;916;-72
2022/05/13 00:26:59;;;;;;;6.60;2.40;;;18.60;99.90;;;;;;165999;29;885;-72
2022/05/13 00:27:06;;;;;;;6.33;2.33;;;18.60;99.90;;;;;;166066;29;969;-73
2022/05/13 00:27:13;;;;;;;6.10;2.20;;;18.60;99.90;;;;;;165963;29;1265;-73
2022/05/13 00:27:18;;;;;;;4.77;2.10;;;18.70;99.90;;;;;;164791;30;846;-72
2022/05/13 00:27:24;;;;;;;4.50;2.10;;;18.70;99.90;;;;;;165262;29;1258;-72
2022/05/13 00:27:30;;;;;;;3.88;2.03;;;18.70;99.90;;;;;;165303;29;1216;-72
2022/05/13 00:27:36;;;;;;;3.63;1.90;;;18.70;99.90;;;;;;166063;29;946;-72
2022/05/13 00:27:41;;;;;;;3.53;2.00;;;18.70;99.90;;;;;;166037;29;957;-72
2022/05/13 00:27:48;;;;;;;5.10;2.10;;;18.70;99.90;;;;;;166028;29;869;-73
2022/05/13 00:27:55;;;;;;;4.22;2.03;;;18.70;99.90;;;;;;165402;29;1064;-72
2022/05/13 00:28:04;;;;;;;5.80;2.20;;;18.70;99.90;;;;;;165421;29;834;-72
2022/05/13 00:28:10;;;;;;;5.73;2.10;;;18.70;99.90;;;;;;165200;29;1450;-72
2022/05/13 00:28:16;;;;;;;3.77;1.90;;;18.70;99.90;;;;;;165287;29;1377;-72
2022/05/13 00:28:22;;;;;;;4.20;2.00;;;18.70;99.90;;;;;;165141;29;1851;-72
2022/05/13 00:28:28;;;;;;;4.15;1.92;;;18.70;99.90;;;;;;164248;30;866;-72
2022/05/13 00:28:33;;;;;;;3.17;1.85;;;18.70;99.90;;;;;;164122;30;885;-72
2022/05/13 00:28:39;;;;;;;3.47;1.97;;;18.70;99.90;;;;;;164513;30;1540;-72
2022/05/13 00:28:45;;;;;;;3.67;2.05;;;18.70;99.90;;;;;;164143;30;976;-72
2022/05/13 00:28:51;;;;;;;4.18;1.92;;;18.70;99.90;;;;;;164611;30;1298;-73
2022/05/13 00:28:56;;;;;;;4.22;2.05;;;18.70;99.90;;;;;;164785;30;874;-72
2022/05/13 00:29:02;;;;;;;4.37;2.00;;;18.70;99.90;;;;;;164796;30;802;-72
2022/05/13 00:29:08;;;;;;;6.47;1.98;;;18.70;99.90;;;;;;164627;30;1407;-71
2022/05/13 00:29:13;;;;;;;6.55;2.05;;;18.60;99.90;;;;;;164795;30;893;-73
2022/05/13 00:29:19;;;;;;;6.43;2.20;;;18.70;99.90;;;;;;164704;30;909;-72
2022/05/13 00:29:25;;;;;;;7.63;2.20;;;18.60;99.90;;;;;;165404;29;1024;-73
2022/05/13 00:29:31;;;;;;;7.45;2.25;;;18.60;99.90;;;;;;165990;29;1044;-72
2022/05/13 00:29:37;;;;;;;6.78;2.40;;;18.60;99.90;;;;;;166043;29;810;-72
2022/05/13 00:29:43;;;;;;;6.57;2.43;;;18.60;99.90;;;;;;165324;29;1355;-73
2022/05/13 00:29:49;;;;;;;6.03;2.33;;;18.60;99.90;;;;;;166077;29;841;-73
2022/05/13 00:29:54;;;;;;;4.83;2.23;;;18.60;99.90;;;;;;166083;29;1003;-72
2022/05/13 00:30:00;;;;;;;5.25;2.30;;;18.50;99.90;;;;;;165401;29;821;-72
2022/05/13 00:30:08;;;;;;;4.93;2.15;;;18.50;99.90;;;;;;166636;29;1240;-72
2022/05/13 00:30:15;;;;;;;4.40;2.03;;;18.50;99.90;;;;;;167267;29;968;-72
2022/05/13 00:30:22;;;;;;;4.33;2.10;;;18.50;99.90;;;;;;167833;29;1352;-73
2022/05/13 00:30:33;;;;;;;5.78;2.20;;;18.40;99.90;;;;;;167916;29;1138;-72
2022/05/13 00:30:43;;;;;;;5.26;2.29;;;18.40;99.90;;;;;;166639;29;1216;-72
2022/05/13 00:30:49;;;;;;;5.11;2.26;;;18.40;99.90;;;;;;165853;29;1445;-72
2022/05/13 00:30:59;;;;;;;4.17;2.20;;;18.40;99.90;;;;;;166594;29;858;-72
2022/05/13 00:31:05;;;;;;;3.40;2.10;;;18.40;99.90;;;;;;166685;29;1024;-72
2022/05/13 00:31:12;;;;;;;3.22;2.06;;;18.40;99.90;;;;;;165391;29;1050;-73
2022/05/13 00:31:17;;;;;;;3.17;2.00;;;18.40;99.90;;;;;;164667;30;1574;-72
2022/05/13 00:31:23;;;;;;;3.25;2.10;;;18.40;99.90;;;;;;164872;29;1831;-71
2022/05/13 00:31:29;;;;;;;3.40;2.17;;;18.40;99.90;;;;;;165401;29;874;-72
2022/05/13 00:31:35;;;;;;;3.67;2.10;;;18.40;99.90;;;;;;166669;29;829;-72
2022/05/13 00:31:42;;;;;;;3.73;2.20;;;18.40;99.90;;;;;;165414;29;826;-73
2022/05/13 00:31:48;;;;;;;3.70;2.26;;;18.40;99.90;;;;;;165383;29;929;-72
2022/05/13 00:31:54;;;;;;;3.37;2.17;;;18.30;99.90;;;;;;165376;29;1216;-72
2022/05/13 00:32:01;;;;;;;3.05;2.00;;;18.40;99.90;;;;;;165879;29;1325;-72
2022/05/13 00:32:07;;;;;;;2.50;1.90;;;18.40;99.90;;;;;;165323;29;1494;-72
2022/05/13 00:32:13;;;;;;;2.50;1.90;;;18.40;99.90;;;;;;165434;29;882;-72
2022/05/13 00:32:18;;;;;;;2.47;1.90;;;18.40;99.90;;;;;;165216;29;1182;-72
2022/05/13 00:32:24;;;;;;;3.78;1.92;;;18.40;99.90;;;;;;165435;29;811;-72
2022/05/13 00:32:30;;;;;;;4.80;2.00;;;18.40;99.90;;;;;;165252;29;1290;-72
2022/05/13 00:32:36;;;;;;;5.18;2.10;;;18.40;99.90;;;;;;165991;29;1364;-72
2022/05/13 00:32:44;;;;;;;5.62;2.30;;;18.40;99.90;;;;;;166678;29;921;-73
2022/05/13 00:32:49;;;;;;;5.70;2.30;;;18.40;99.90;;;;;;166555;29;1503;-73
2022/05/13 00:32:55;;;;;;;4.70;2.30;;;18.30;99.90;;;;;;166470;29;1657;-72
2022/05/13 00:33:01;;;;;;;4.37;2.37;;;18.30;99.90;;;;;;166192;29;1748;-72
2022/05/13 00:33:09;;;;;;;4.35;2.30;;;18.30;99.90;;;;;;165579;29;2620;-72
2022/05/13 00:33:17;;;;;;;4.23;2.20;;;18.30;99.90;;;;;;163984;30;1744;-73
2022/05/13 00:33:23;;;;;;;4.13;2.20;;;18.30;99.90;;;;;;164189;30;1021;-72
2022/05/13 00:33:29;;;;;;;4.18;2.20;;;18.30;99.90;;;;;;164586;30;1769;-73
2022/05/13 00:33:34;;;;;;;4.05;2.17;;;18.30;99.90;;;;;;164690;30;1965;-72
2022/05/13 00:33:40;;;;;;;3.60;2.00;;;18.30;99.90;;;;;;165939;29;1469;-73
2022/05/13 00:33:46;;;;;;;3.97;2.10;;;18.20;99.90;;;;;;166568;29;1215;-72
2022/05/13 00:33:53;;;;;;;3.88;2.10;;;18.20;99.90;;;;;;165302;29;1003;-71
2022/05/13 00:33:59;;;;;;;3.40;2.00;;;18.30;99.90;;;;;;165397;29;928;-72
2022/05/13 00:34:05;;;;;;;3.55;2.10;;;18.20;99.90;;;;;;165373;29;1042;-73
2022/05/13 00:34:13;;;;;;;3.33;2.00;;;18.30;99.90;;;;;;165395;29;972;-73
2022/05/13 00:34:19;;;;;;;3.10;1.92;;;18.30;99.90;;;;;;164048;30;985;-74
2022/05/13 00:34:25;;;;;;;3.33;1.90;;;18.30;99.90;;;;;;166399;29;1591;-75
2022/05/13 00:34:33;;;;;;;3.10;1.95;;;18.20;99.90;;;;;;166422;29;1577;-75
2022/05/13 00:34:39;;;;;;;4.10;2.07;;;18.20;99.90;;;;;;167266;29;984;-75